Time;durP1;ratioP1;P1;durP2;ratioP2;P2;SDS_P1;SDS_P2;PMS_P1;PMS_P2;Temp;Humidity;BMP_temperature;BMP_pressure;BME280_temperature;BME280_humidity;BME280_pressure;Samples;Min_cycle;Max_cycle;Signal;HPM_P1;HPM_P2
2023/02/12 00:00:00;;;;;;;;;24.00;17.00;;;;;10.03;65.75;103626.28;1952897;28;3581482;-74
2023/02/12 00:01:12;;;;;;;;;21.00;18.00;;;;;10.04;66.01;103630.69;1989870;28;2826396;-74
2023/02/12 00:02:23;;;;;;;;;20.00;16.33;;;;;10.01;66.01;103623.63;1991314;28;3571092;-74
2023/02/12 00:03:37;;;;;;;;;23.17;20.67;;;;;10.01;65.92;103626.25;2014773;28;2833552;-74
2023/02/12 00:04:51;;;;;;;;;20.40;18.20;;;;;10.01;65.96;103622.75;1979706;28;2826611;-74
2023/02/12 00:06:03;;;;;;;;;17.75;15.75;;;;;10.01;66.18;103620.13;1981546;28;1848260;-74
2023/02/12 00:07:15;;;;;;;;;21.33;18.00;;;;;10.02;65.91;103619.25;1983089;28;3565879;-74
2023/02/12 00:08:29;;;;;;;;;20.00;19.17;;;;;10.01;65.90;103612.22;2012279;28;1841973;-74
2023/02/12 00:09:39;;;;;;;;;26.50;17.50;;;;;10.02;66.48;103620.13;1961741;28;2856585;-74
2023/02/12 00:10:51;;;;;;;;;24.33;19.33;;;;;10.03;66.20;103607.88;1983978;28;3581458;-74
2023/02/12 00:12:03;;;;;;;;;24.00;20.67;;;;;10.02;66.16;103620.13;2006277;28;3579431;-74
2023/02/12 00:13:15;;;;;;;;;21.20;18.20;;;;;10.00;66.10;103607.84;2017271;28;1838875;-74
2023/02/12 00:14:26;;;;;;;;;25.00;21.33;;;;;9.99;66.28;103621.84;1967794;28;3573133;-74
2023/02/12 00:15:39;;;;;;;;;22.60;19.20;;;;;9.98;65.99;103607.81;2000527;28;3577281;-74
2023/02/12 00:16:50;;;;;;;;;23.50;22.00;;;;;9.98;66.02;103617.44;1987230;28;2843983;-74
2023/02/12 00:18:02;;;;;;;;;22.00;20.00;;;;;9.98;65.87;103615.69;1982204;28;3571062;-74
2023/02/12 00:19:14;;;;;;;;;28.00;24.00;;;;;9.99;66.04;103611.31;1996285;28;3589850;-74
2023/02/12 00:20:26;;;;;;;;;25.80;23.80;;;;;10.00;66.15;103602.59;1997293;28;3583519;-74
2023/02/12 00:21:38;;;;;;;;;24.33;21.00;;;;;9.99;66.10;103609.59;1999023;28;3571054;-74
2023/02/12 00:22:49;;;;;;;;;22.00;19.50;;;;;10.00;66.04;103599.97;1998576;28;2840882;-74
2023/02/12 00:24:02;;;;;;;;;24.00;21.33;;;;;10.00;66.10;103610.47;1971516;28;3579367;-74
2023/02/12 00:25:14;;;;;;;;;27.67;20.67;;;;;10.01;66.18;103606.97;1983748;28;3591906;-74
2023/02/12 00:26:26;;;;;;;;;29.33;23.00;;;;;10.01;66.18;103606.97;1985378;28;3600208;-74
2023/02/12 00:27:37;;;;;;;;;25.00;20.33;;;;;10.03;66.14;103605.25;1978514;28;3586698;-74
2023/02/12 00:28:50;;;;;;;;;21.33;18.67;;;;;10.02;66.11;103603.50;1998837;28;3572100;-74
2023/02/12 00:30:02;;;;;;;;;24.00;20.67;;;;;10.02;66.14;103607.00;1975035;28;3572100;-74
2023/02/12 00:31:17;;;;;;;;;24.00;21.67;;;;;10.02;66.17;103593.84;1993110;28;3567969;-74
2023/02/12 00:32:28;;;;;;;;;22.33;20.67;;;;;10.04;66.03;103600.88;1989135;28;3574194;-74
2023/02/12 00:33:40;;;;;;;;;26.33;19.00;;;;;10.04;65.90;103601.78;2005450;28;3577898;-74
2023/02/12 00:34:52;;;;;;;;;25.33;20.67;;;;;10.05;65.97;103600.03;1993378;28;3583605;-74
2023/02/12 00:36:04;;;;;;;;;23.80;20.80;;;;;10.03;65.79;103600.00;2002156;28;1833743;-74
2023/02/12 00:37:16;;;;;;;;;29.33;22.00;;;;;10.04;65.84;103600.88;1974987;28;3595023;-74
2023/02/12 00:38:27;;;;;;;;;21.00;18.00;;;;;10.03;66.25;103597.38;1982804;28;2841913;-74
2023/02/12 00:39:39;;;;;;;;;25.00;21.67;;;;;10.03;65.96;103600.00;1978984;28;3583521;-74
2023/02/12 00:40:51;;;;;;;;;27.67;24.00;;;;;10.03;66.07;103597.38;1997710;28;3577335;-74
2023/02/12 00:42:04;;;;;;;;;25.60;21.80;;;;;10.04;65.88;103598.25;2001169;28;3591238;-74
2023/02/12 00:43:15;;;;;;;;;28.00;23.67;;;;;10.04;65.90;103604.41;1958690;28;3581470;-74
2023/02/12 00:44:27;;;;;;;;;24.40;21.60;;;;;10.04;66.16;103595.63;2005748;28;3574147;-74
2023/02/12 00:45:39;;;;;;;;;25.20;20.40;;;;;10.02;66.45;103598.25;2003698;28;3578317;-74
2023/02/12 00:46:51;;;;;;;;;27.67;22.67;;;;;10.02;66.17;103596.47;1976190;28;3585649;-74
2023/02/12 00:48:03;;;;;;;;;33.00;25.40;;;;;10.01;66.25;103604.34;2011433;28;3591864;-74
2023/02/12 00:49:15;;;;;;;;;27.00;23.33;;;;;10.00;66.55;103606.09;1967136;28;3582531;-74
2023/02/12 00:50:26;;;;;;;;;23.40;19.20;;;;;9.98;66.19;103596.41;1996363;28;3569983;-74
2023/02/12 00:51:39;;;;;;;;;32.60;23.00;;;;;9.97;66.49;103611.31;2002377;28;3600187;-74
2023/02/12 00:52:50;;;;;;;;;28.67;20.00;;;;;9.97;66.29;103608.69;1976797;28;3585668;-74
2023/02/12 00:54:02;;;;;;;;;24.67;20.33;;;;;9.99;66.23;103598.19;1998881;28;3586762;-74
2023/02/12 00:55:14;;;;;;;;;24.33;19.33;;;;;9.99;66.21;103603.44;1998081;28;3586708;-74
2023/02/12 00:56:26;;;;;;;;;23.80;19.80;;;;;10.00;66.29;103605.22;2018758;28;1841939;-74
2023/02/12 00:57:37;;;;;;;;;26.50;22.50;;;;;10.00;66.24;103611.34;1993887;28;2848170;-74
2023/02/12 00:58:48;;;;;;;;;19.50;19.50;;;;;10.00;66.16;103610.47;1978164;28;2840183;-74
2023/02/12 01:00:00;;;;;;;;;17.00;15.33;;;;;10.00;66.13;103619.22;1973512;28;3544011;-74
2023/02/12 01:01:13;;;;;;;;;19.17;18.00;;;;;10.00;66.07;103615.72;2022663;28;2835679;-74
2023/02/12 01:02:24;;;;;;;;;17.40;15.40;;;;;10.00;65.94;103615.72;1987105;28;1829456;-74
2023/02/12 01:03:37;;;;;;;;;19.33;16.33;;;;;9.99;66.21;103619.22;1953493;28;3567925;-74
2023/02/12 01:04:48;;;;;;;;;15.67;13.67;;;;;9.97;65.97;103615.69;1984160;28;2804426;-74
2023/02/12 01:05:59;;;;;;;;;17.50;15.00;;;;;9.97;66.00;103613.06;1987842;28;2824229;-74
2023/02/12 01:07:11;;;;;;;;;15.20;14.60;;;;;9.95;66.09;103612.16;1988195;28;1827449;-74
2023/02/12 01:08:25;;;;;;;;;23.43;18.43;;;;;9.94;65.82;103607.75;2013770;28;1835662;-74
2023/02/12 01:09:36;;;;;;;;;15.50;15.50;;;;;9.94;65.98;103615.63;1992048;28;2812779;-74
2023/02/12 01:10:55;;;;;;;;;16.50;12.50;;;;;9.94;66.20;103610.38;1976996;28;2796077;-74
2023/02/12 01:12:08;;;;;;;;;15.83;14.00;;;;;9.95;66.33;103612.16;1994124;28;1835767;-74
2023/02/12 01:13:19;;;;;;;;;20.00;15.00;;;;;9.94;66.02;103613.00;1970388;28;2823191;-74
2023/02/12 01:14:30;;;;;;;;;19.60;15.60;;;;;9.91;66.20;103608.56;1994909;28;1829480;-74
2023/02/12 01:15:42;;;;;;;;;19.00;15.67;;;;;9.88;66.11;103606.78;1986740;28;2827716;-74
2023/02/12 01:16:52;;;;;;;;;18.00;16.00;;;;;9.86;66.24;103605.88;1987809;28;2825276;-74
2023/02/12 01:18:03;;;;;;;;;17.00;14.00;;;;;9.85;66.12;103606.72;1977545;28;2814850;-74
2023/02/12 01:19:15;;;;;;;;;19.20;15.00;;;;;9.85;66.30;103606.72;1980110;28;1825311;-74
2023/02/12 01:20:28;;;;;;;;;19.20;17.00;;;;;9.84;66.26;103602.34;1996590;28;2827303;-74
2023/02/12 01:21:39;;;;;;;;;18.00;16.00;;;;;9.84;66.17;103602.34;1977531;28;2825739;-74
2023/02/12 01:22:51;;;;;;;;;15.00;15.00;;;;;9.84;66.38;103604.97;1981821;28;2814802;-74
2023/02/12 01:24:01;;;;;;;;;18.50;17.00;;;;;9.85;66.15;103600.59;1966387;28;2828391;-74
2023/02/12 01:25:14;;;;;;;;;19.33;17.00;;;;;9.87;66.20;103598.88;1975229;28;3562713;-74
2023/02/12 01:26:29;;;;;;;;;24.14;18.43;;;;;9.88;66.09;103605.88;2013881;28;1827410;-74
2023/02/12 01:27:40;;;;;;;;;16.50;15.50;;;;;9.88;66.24;103605.88;1984196;28;2819005;-74
2023/02/12 01:28:53;;;;;;;;;20.50;15.50;;;;;9.87;66.26;103599.78;1970534;28;2824536;-74
2023/02/12 01:30:08;;;;;;;;;19.33;19.33;;;;;9.88;66.36;103604.16;1969274;28;2822284;-74
2023/02/12 01:31:22;;;;;;;;;22.33;15.67;;;;;9.88;65.98;103603.25;1990930;28;3571416;-74
2023/02/12 01:32:33;;;;;;;;;19.00;16.50;;;;;9.84;66.36;103604.97;1983044;28;2816428;-74
2023/02/12 01:33:50;;;;;;;;;21.33;20.00;;;;;9.84;66.20;103604.06;1961188;28;3565889;-74
2023/02/12 01:35:02;;;;;;;;;25.00;21.00;;;;;9.84;66.17;103606.69;1992590;28;3584611;-74
2023/02/12 01:36:14;;;;;;;;;22.33;18.00;;;;;9.85;66.53;103608.47;1991490;28;3573528;-74
2023/02/12 01:37:25;;;;;;;;;15.00;14.00;;;;;9.86;66.15;103605.88;1990779;28;2806509;-74
2023/02/12 01:38:37;;;;;;;;;17.33;15.67;;;;;9.84;66.28;103610.22;1978914;28;2823292;-73
2023/02/12 01:39:52;;;;;;;;;19.29;17.00;;;;;9.83;66.04;103603.19;2021042;28;1839928;-74
2023/02/12 01:41:11;;;;;;;;;11.50;11.50;;;;;9.84;65.91;103610.22;2023395;28;1823243;-74
2023/02/12 01:42:22;;;;;;;;;13.50;13.00;;;;;9.84;65.68;103612.84;1970036;28;2798187;-74
2023/02/12 01:43:35;;;;;;;;;20.00;16.50;;;;;9.84;65.93;103615.47;2009751;28;2828502;-73
2023/02/12 01:45:11;;;;;;;;;14.00;13.00;;;;;9.82;65.93;103614.56;1971836;28;2798168;-74
2023/02/12 01:46:24;;;;;;;;;8.33;8.33;;;;;9.81;65.73;103612.78;2011543;28;2750293;-74
2023/02/12 01:47:36;;;;;;;;;10.75;9.00;;;;;9.83;65.91;103602.31;2000904;28;1835751;-74
2023/02/12 01:48:49;;;;;;;;;8.50;6.33;;;;;9.82;65.74;103601.44;2021710;28;2732566;-74
2023/02/12 01:50:03;;;;;;;;;7.17;7.00;;;;;9.82;65.23;103596.19;1997692;28;2746091;-74
2023/02/12 01:51:21;;;;;;;;;7.17;6.00;;;;;9.82;65.23;103596.19;2021504;28;2736744;-74
2023/02/12 01:52:37;;;;;;;;;6.67;6.67;;;;;9.82;65.31;103593.56;2019739;28;2748178;-74
2023/02/12 01:53:57;;;;;;;;;9.00;8.00;;;;;9.83;65.04;103602.31;2011895;28;2740899;-74
2023/02/12 01:55:10;;;;;;;;;6.50;5.83;;;;;9.83;65.34;103591.81;1991038;28;2751292;-74
2023/02/12 01:56:24;;;;;;;;;7.50;5.67;;;;;9.84;65.36;103593.56;1997560;28;2746095;-74
2023/02/12 01:57:41;;;;;;;;;6.00;6.00;;;;;9.85;65.20;103592.72;1989188;28;2740925;-74
2023/02/12 01:58:56;;;;;;;;;9.00;6.17;;;;;9.86;65.20;103582.22;2013798;28;2748794;-74
2023/02/12 02:00:22;;;;;;;;;6.17;6.00;;;;;9.87;64.84;103583.13;1996817;28;2746102;-74
2023/02/12 02:01:35;;;;;;;;;5.83;5.83;;;;;9.87;65.16;103588.38;2020792;28;2745073;-74
2023/02/12 02:02:50;;;;;;;;;5.33;4.00;;;;;9.87;65.27;103589.25;1970770;28;3470047;-74
2023/02/12 02:04:11;;;;;;;;;6.00;6.00;;;;;9.87;65.09;103588.38;2021111;28;2745057;-74
2023/02/12 02:05:38;;;;;;;;;5.50;5.50;;;;;9.87;65.17;103586.63;1989287;28;2746465;-74
2023/02/12 02:06:58;;;;;;;;;4.17;4.17;;;;;9.89;65.18;103586.66;2015826;28;2740212;-74
2023/02/12 02:08:12;;;;;;;;;4.67;4.67;;;;;9.89;64.95;103584.91;2020654;28;2746571;-74
2023/02/12 02:09:24;;;;;;;;;6.00;6.00;;;;;9.90;64.98;103585.81;1979137;28;2745092;-74
2023/02/12 02:10:37;;;;;;;;;5.33;5.17;;;;;9.90;65.06;103594.53;2003003;28;2742997;-74
2023/02/12 02:14:57;;;;;;;;;6.50;6.33;;;;;9.92;65.03;103581.44;1997046;28;2740907;-74
2023/02/12 02:16:32;;;;;;;;;6.50;5.00;;;;;9.92;64.74;103577.94;2011730;28;2745056;-74
2023/02/12 02:17:57;;;;;;;;;7.00;6.67;;;;;9.91;65.16;103574.41;2016705;28;2745087;-74
2023/02/12 02:19:34;;;;;;;;;6.33;5.00;;;;;9.92;65.07;103576.19;2011905;28;2745049;-73
2023/02/12 02:20:59;;;;;;;;;5.00;5.00;;;;;9.93;65.01;103582.31;2016877;28;2748201;-74
2023/02/12 02:22:19;;;;;;;;;6.00;4.33;;;;;9.91;65.06;103571.78;2011286;28;2750254;-73
2023/02/12 02:23:49;;;;;;;;;5.00;5.00;;;;;9.92;64.96;103576.19;2014869;28;2744007;-74
2023/02/12 02:25:44;;;;;;;;;5.00;4.50;;;;;9.93;65.02;103575.31;2011832;28;2749276;-74
2023/02/12 02:27:19;;;;;;;;;4.33;4.00;;;;;9.92;64.84;103576.19;1964393;28;2752365;-74
2023/02/12 02:28:42;;;;;;;;;9.17;6.50;;;;;9.93;64.90;103570.06;1965733;28;2751303;-74
2023/02/12 02:30:13;;;;;;;;;7.33;5.83;;;;;9.94;64.94;103574.47;1996994;28;2747224;-74
2023/02/12 02:31:45;;;;;;;;;7.00;6.00;;;;;9.94;65.03;103577.09;2012688;28;2746118;-74
2023/02/12 02:33:18;;;;;;;;;5.17;4.50;;;;;9.94;64.67;103570.94;2013330;28;2739872;-73
2023/02/12 02:34:40;;;;;;;;;4.17;4.17;;;;;9.91;64.44;103574.41;2012200;28;2754444;-73
2023/02/12 02:35:59;;;;;;;;;5.67;4.50;;;;;9.90;64.63;103578.78;2018182;28;2752337;-74
2023/02/12 02:37:35;;;;;;;;;5.00;5.00;;;;;9.89;64.48;103571.78;1997178;28;2742970;-74
2023/02/12 02:39:02;;;;;;;;;4.67;4.00;;;;;9.90;64.65;103563.00;2020242;28;2754477;-73
2023/02/12 02:40:28;;;;;;;;;4.67;3.83;;;;;9.90;64.59;103562.16;1996896;28;2746150;-74
2023/02/12 02:41:58;;;;;;;;;8.00;6.50;;;;;9.92;64.83;103562.16;1996657;28;2750380;-74
2023/02/12 02:43:21;;;;;;;;;3.67;3.67;;;;;9.93;64.82;103561.28;2011622;28;2752352;-74
2023/02/12 02:44:43;;;;;;;;;6.83;3.17;;;;;9.92;64.54;103563.06;2020826;28;2748210;-74
2023/02/12 02:46:06;;;;;;;;;4.50;4.50;;;;;9.93;64.51;103558.66;2020260;28;2754428;-74
2023/02/12 02:47:25;;;;;;;;;5.50;4.83;;;;;9.93;64.67;103556.94;2020119;28;2739850;-74
2023/02/12 02:48:48;;;;;;;;;4.17;4.17;;;;;9.95;64.26;103554.34;1996484;28;2754448;-74
2023/02/12 02:50:14;;;;;;;;;5.33;4.00;;;;;9.94;64.34;103555.19;1997369;28;2735680;-74
2023/02/12 02:51:39;;;;;;;;;5.50;5.17;;;;;9.95;64.79;103559.59;2012896;28;2742993;-74
2023/02/12 02:53:02;;;;;;;;;3.50;3.17;;;;;9.95;64.80;103559.59;2019675;28;2746579;-74
2023/02/12 02:54:21;;;;;;;;;4.17;4.17;;;;;9.97;64.68;103560.50;2020804;28;2739856;-74
2023/02/12 02:55:44;;;;;;;;;4.00;3.50;;;;;9.97;64.66;103563.13;1997051;28;2754428;-74
2023/02/12 02:57:06;;;;;;;;;7.83;4.83;;;;;9.98;64.40;103554.38;1996575;28;2750321;-74
2023/02/12 02:58:25;;;;;;;;;3.50;3.50;;;;;9.99;64.72;103566.66;1998183;28;2739888;-74
2023/02/12 02:59:43;;;;;;;;;3.00;3.00;;;;;10.01;64.34;103554.41;1969990;28;3459643;-74
2023/02/12 03:01:02;;;;;;;;;4.17;3.83;;;;;10.01;64.31;103555.31;2020863;28;2744028;-74
2023/02/12 03:02:20;;;;;;;;;5.00;4.00;;;;;10.02;64.14;103554.44;1988765;28;2747140;-74
2023/02/12 03:03:41;;;;;;;;;4.00;4.00;;;;;10.04;64.34;103554.47;1980240;28;2752360;-74
2023/02/12 03:05:00;;;;;;;;;5.83;5.00;;;;;10.04;64.53;103549.22;2006556;28;2737762;-74
2023/02/12 03:06:25;;;;;;;;;3.83;3.83;;;;;10.04;64.18;103551.84;2014383;28;2741917;-74
2023/02/12 03:07:51;;;;;;;;;4.50;3.83;;;;;10.05;64.28;103553.59;1997010;28;2749235;-74
2023/02/12 03:09:21;;;;;;;;;4.50;4.33;;;;;10.05;64.25;103558.84;2020039;28;2747192;-74
2023/02/12 03:10:41;;;;;;;;;5.33;5.00;;;;;10.06;64.47;103562.38;1997470;28;2739833;-75
2023/02/12 03:12:00;;;;;;;;;6.50;5.33;;;;;10.07;64.21;103551.91;2011154;28;2742966;-75
2023/02/12 03:13:20;;;;;;;;;7.17;5.17;;;;;10.06;64.38;103551.84;2013836;28;2746086;-75
2023/02/12 03:14:39;;;;;;;;;4.00;4.00;;;;;10.04;64.23;103546.59;1996815;28;2754463;-75
2023/02/12 03:16:39;;;;;;;;;3.00;3.00;;;;;10.05;64.11;103547.47;1999559;28;2744378;-75
2023/02/12 03:17:52;;;;;;;;;6.67;5.33;;;;;10.04;64.37;103549.22;2020539;28;2746098;-75
2023/02/12 03:19:17;;;;;;;;;6.17;4.67;;;;;10.04;64.08;103546.59;2016784;28;2745061;-75
2023/02/12 03:20:46;;;;;;;;;5.17;4.50;;;;;10.04;64.39;103543.06;1996886;28;2750288;-75
2023/02/12 03:22:05;;;;;;;;;6.00;6.00;;;;;10.02;64.13;103548.31;2019244;28;2746079;-75
2023/02/12 03:23:27;;;;;;;;;7.00;5.50;;;;;10.00;64.27;103545.66;2020237;28;2745074;-75
2023/02/12 03:24:45;;;;;;;;;5.83;5.83;;;;;10.00;64.07;103543.00;1996321;28;2746088;-75
2023/02/12 03:26:07;;;;;;;;;6.33;4.67;;;;;10.01;64.48;103543.91;2010897;28;2752380;-75
2023/02/12 03:27:35;;;;;;;;;6.00;5.67;;;;;10.00;64.05;103547.41;1991219;28;2747201;-75
2023/02/12 03:28:48;;;;;;;;;7.17;5.33;;;;;9.99;64.24;103543.91;2011256;28;2743033;-75
2023/02/12 03:30:03;;;;;;;;;5.67;4.83;;;;;10.00;64.24;103542.16;2012683;28;2746087;-75
2023/02/12 03:31:42;;;;;;;;;6.33;5.50;;;;;9.98;64.09;103542.13;2014153;28;2746116;-75
2023/02/12 03:33:18;;;;;;;;;6.33;6.00;;;;;9.99;64.49;103537.75;2007250;28;2744019;-75
2023/02/12 03:34:43;;;;;;;;;5.83;5.50;;;;;10.00;64.13;103543.00;2004296;28;2731517;-75
2023/02/12 03:36:06;;;;;;;;;7.17;5.00;;;;;9.99;64.25;103535.13;2006644;28;2742977;-75
2023/02/12 03:37:28;;;;;;;;;2.17;2.00;;;;;10.00;64.34;103537.75;2013147;28;2750310;-75
2023/02/12 03:38:48;;;;;;;;;6.33;5.33;;;;;10.01;64.28;103528.13;2011583;28;2746083;-75
2023/02/12 03:40:41;;;;;;;;;6.67;6.33;;;;;10.04;64.60;103536.06;2014265;28;2732558;-75
2023/02/12 03:42:23;;;;;;;;;7.50;5.00;;;;;10.05;64.45;103535.19;2010621;28;2746084;-75
2023/02/12 03:44:19;;;;;;;;;5.83;4.00;;;;;10.05;64.29;103535.19;2014106;28;2750300;-75
2023/02/12 03:45:55;;;;;;;;;6.67;5.00;;;;;10.06;64.44;103536.09;1980734;28;2747232;-75
2023/02/12 03:47:17;;;;;;;;;5.17;5.00;;;;;10.06;64.19;103534.34;1997152;28;2746185;-75
2023/02/12 03:48:55;;;;;;;;;5.33;5.33;;;;;10.07;64.24;103530.88;2011551;28;2752876;-75
2023/02/12 03:50:37;;;;;;;;;6.00;4.17;;;;;10.06;64.22;103534.34;2012330;28;2747167;-75
2023/02/12 03:51:51;;;;;;;;;7.33;6.17;;;;;10.03;63.93;103536.94;1993130;28;2744008;-75
2023/02/12 03:53:05;;;;;;;;;8.00;7.00;;;;;10.01;64.05;103528.13;2019804;28;2730503;-75
2023/02/12 03:54:20;;;;;;;;;7.00;6.33;;;;;9.99;64.17;103524.63;2020248;28;2743024;-75
2023/02/12 03:55:37;;;;;;;;;8.50;7.83;;;;;9.98;63.99;103533.34;2019905;28;2743519;-75
2023/02/12 03:56:58;;;;;;;;;5.67;5.67;;;;;9.95;64.55;103533.31;2020050;28;2732573;-75
2023/02/12 03:58:20;;;;;;;;;7.33;6.00;;;;;9.96;64.32;103535.06;2019155;28;2746095;-75
2023/02/12 03:59:31;;;;;;;;;10.00;6.33;;;;;9.95;64.31;103534.19;1993469;28;2754483;-75
2023/02/12 04:00:44;;;;;;;;;9.50;7.50;;;;;9.95;64.26;103538.56;2009309;28;2751319;-75
2023/02/12 04:01:58;;;;;;;;;8.83;6.50;;;;;9.95;64.47;103530.69;1981961;28;2745081;-75
2023/02/12 04:03:08;;;;;;;;;8.00;5.00;;;;;9.96;64.70;103532.44;1977630;28;2743576;-75
2023/02/12 04:04:20;;;;;;;;;6.00;5.33;;;;;9.96;64.18;103535.97;1990877;28;2745061;-75
2023/02/12 04:05:30;;;;;;;;;8.67;8.00;;;;;9.95;64.54;103539.44;2001316;28;1835742;-75
2023/02/12 04:06:42;;;;;;;;;7.00;6.33;;;;;9.95;64.30;103536.81;1980962;28;2735671;-75
2023/02/12 04:07:58;;;;;;;;;8.17;6.67;;;;;9.93;64.32;103532.38;1993260;28;2739853;-75
2023/02/12 04:09:12;;;;;;;;;6.83;6.00;;;;;9.92;64.23;103535.91;2018641;28;2732542;-75
2023/02/12 04:10:31;;;;;;;;;12.00;7.67;;;;;9.91;64.39;103535.00;1977987;28;2758642;-75
2023/02/12 04:12:13;;;;;;;;;9.83;8.00;;;;;9.94;64.32;103542.06;2005543;28;2756622;-75
2023/02/12 04:13:51;;;;;;;;;10.00;10.00;;;;;9.93;64.32;103535.00;1993964;28;2777460;-75
2023/02/12 04:15:35;;;;;;;;;13.50;10.25;;;;;9.93;64.39;103537.63;2006219;28;1856567;-75
2023/02/12 04:17:13;;;;;;;;;13.00;9.67;;;;;9.93;64.52;103540.28;1989824;28;3501312;-75
2023/02/12 04:18:39;;;;;;;;;10.50;8.83;;;;;9.93;64.73;103535.00;2012157;28;2750277;-75
2023/02/12 04:20:09;;;;;;;;;9.67;9.00;;;;;9.92;64.61;103536.78;1969658;28;2761724;-75
2023/02/12 04:21:44;;;;;;;;;10.00;10.00;;;;;9.92;64.67;103535.91;1991418;28;3508599;-75
2023/02/12 04:23:20;;;;;;;;;10.00;9.00;;;;;9.93;64.56;103535.00;1993213;28;3475252;-75
2023/02/12 04:24:54;;;;;;;;;15.67;11.33;;;;;9.94;64.53;103542.06;1991704;28;3521060;-75
2023/02/12 04:26:23;;;;;;;;;11.33;10.00;;;;;9.94;64.57;103539.41;1967541;28;3505464;-75
2023/02/12 04:27:46;;;;;;;;;10.67;10.67;;;;;9.96;64.75;103545.56;1992211;28;3517971;-75
2023/02/12 04:29:15;;;;;;;;;12.00;10.50;;;;;9.96;64.60;103540.31;1991973;28;2791957;-75
2023/02/12 04:30:43;;;;;;;;;11.00;11.00;;;;;9.95;64.69;103535.94;1984061;28;3506513;-75
2023/02/12 04:32:04;;;;;;;;;13.00;11.50;;;;;9.95;64.54;103544.69;2005647;28;1836784;-75
2023/02/12 04:33:21;;;;;;;;;14.50;12.00;;;;;9.95;64.45;103544.69;1983061;28;2796113;-75
2023/02/12 04:34:50;;;;;;;;;11.00;11.00;;;;;9.96;64.58;103540.31;1977234;28;2789846;-75
2023/02/12 04:36:08;;;;;;;;;13.50;10.75;;;;;9.96;64.67;103550.84;2001760;28;1846193;-75
2023/02/12 04:37:24;;;;;;;;;10.33;10.33;;;;;9.98;64.55;103559.63;1985297;28;2773732;-75
2023/02/12 04:38:42;;;;;;;;;12.33;11.00;;;;;9.98;64.64;103549.09;1985050;28;3511045;-75
2023/02/12 04:39:57;;;;;;;;;6.00;6.00;;;;;9.97;64.55;103548.25;2012312;28;2739885;-75
2023/02/12 04:41:10;;;;;;;;;12.00;9.17;;;;;9.97;64.21;103556.13;2011402;28;2756543;-75
2023/02/12 04:42:24;;;;;;;;;9.00;5.83;;;;;9.95;63.77;103554.34;1996082;28;2746099;-75
2023/02/12 04:43:37;;;;;;;;;3.83;2.50;;;;;9.93;64.15;103550.78;2020561;28;2745069;-75
2023/02/12 04:44:50;;;;;;;;;5.33;4.00;;;;;9.92;64.28;103543.78;2019072;28;2752395;-75
2023/02/12 04:46:06;;;;;;;;;7.33;4.00;;;;;9.92;64.72;103555.19;1966047;28;2746118;-75
2023/02/12 04:47:19;;;;;;;;;7.33;5.67;;;;;9.94;64.34;103549.94;2013953;28;2733648;-75
2023/02/12 04:48:33;;;;;;;;;7.33;6.00;;;;;9.94;64.33;103542.06;1996061;28;2744011;-75
2023/02/12 04:49:46;;;;;;;;;7.67;7.67;;;;;9.95;64.15;103544.69;2013451;28;2746087;-75
2023/02/12 04:50:57;;;;;;;;;10.33;7.00;;;;;9.96;64.46;103541.22;1984866;28;3485748;-75
2023/02/12 04:52:08;;;;;;;;;7.33;7.33;;;;;9.97;64.00;103542.09;2018604;28;2731534;-75
2023/02/12 04:53:21;;;;;;;;;9.50;9.00;;;;;9.98;64.18;103542.13;1998034;28;2744035;-75
2023/02/12 04:54:35;;;;;;;;;6.83;5.33;;;;;9.98;64.19;103541.22;1987501;28;2750266;-75
2023/02/12 04:55:46;;;;;;;;;10.67;7.67;;;;;9.97;64.09;103542.09;1987006;28;2748265;-75
2023/02/12 04:57:00;;;;;;;;;8.50;7.50;;;;;9.97;64.04;103537.75;2011781;28;2730514;-75
2023/02/12 04:58:13;;;;;;;;;7.33;6.50;;;;;9.97;64.27;103535.13;2007337;28;2725270;-75
2023/02/12 04:59:26;;;;;;;;;7.83;7.67;;;;;9.97;64.13;103531.59;2011393;28;2735706;-75
2023/02/12 05:00:37;;;;;;;;;11.00;9.00;;;;;9.98;64.25;103533.34;1977466;28;2776359;-75
2023/02/12 05:01:47;;;;;;;;;11.67;8.67;;;;;10.00;64.08;103531.66;1993472;28;2758654;-75
2023/02/12 05:02:59;;;;;;;;;10.50;7.00;;;;;9.99;63.86;103537.75;2010002;28;2743037;-75
2023/02/12 05:04:13;;;;;;;;;9.00;9.00;;;;;9.97;63.89;103545.63;1990857;28;2733662;-75
2023/02/12 05:05:26;;;;;;;;;7.50;7.50;;;;;9.97;64.09;103537.75;2011321;28;2736740;-75
2023/02/12 05:06:40;;;;;;;;;5.67;5.17;;;;;9.98;64.07;103543.84;2008723;28;2749255;-75
2023/02/12 05:07:51;;;;;;;;;10.00;7.00;;;;;9.98;64.15;103539.50;1986261;28;2764938;-75
2023/02/12 05:09:03;;;;;;;;;9.33;8.00;;;;;9.98;64.06;103539.50;2010277;28;2747152;-75
2023/02/12 05:10:16;;;;;;;;;8.33;7.17;;;;;9.99;64.10;103543.91;1981747;28;2733588;-75
2023/02/12 05:11:29;;;;;;;;;8.83;8.33;;;;;10.00;64.06;103542.16;1996492;28;2739876;-75
2023/02/12 05:12:40;;;;;;;;;8.67;7.00;;;;;9.99;64.12;103535.13;1971230;28;2746084;-75
2023/02/12 05:13:52;;;;;;;;;8.33;8.33;;;;;9.98;64.15;103538.59;1995065;28;2740244;-75
2023/02/12 05:15:05;;;;;;;;;7.67;7.50;;;;;9.99;63.99;103535.13;2010904;28;2741924;-75
2023/02/12 05:16:20;;;;;;;;;8.50;7.50;;;;;9.99;64.04;103545.63;2011809;28;2726321;-75
2023/02/12 05:17:31;;;;;;;;;6.67;5.67;;;;;9.98;63.58;103534.22;1986433;28;2746197;-75
2023/02/12 05:18:42;;;;;;;;;10.00;8.00;;;;;9.99;63.77;103538.63;1999281;28;3474576;-75
2023/02/12 05:19:54;;;;;;;;;8.60;8.60;;;;;9.97;64.17;103540.38;2018111;28;2728396;-75
2023/02/12 05:21:05;;;;;;;;;9.33;7.33;;;;;9.96;63.74;103535.97;1992664;28;3462759;-75
2023/02/12 05:22:16;;;;;;;;;7.33;7.00;;;;;9.96;63.92;103540.31;2018284;28;2732601;-75
2023/02/12 05:23:28;;;;;;;;;10.00;8.67;;;;;9.96;64.15;103543.84;1969424;28;3476361;-75
2023/02/12 05:24:41;;;;;;;;;7.00;7.00;;;;;9.97;64.01;103542.09;2018949;28;2737760;-75
2023/02/12 05:25:58;;;;;;;;;8.83;7.50;;;;;9.97;64.03;103537.75;2010354;28;2750265;-75
2023/02/12 05:27:08;;;;;;;;;9.00;8.00;;;;;9.97;64.38;103528.97;1985746;28;2735687;-75
2023/02/12 05:28:19;;;;;;;;;9.67;9.00;;;;;9.98;64.40;103528.09;2003115;28;2746110;-75
2023/02/12 05:29:30;;;;;;;;;12.67;10.33;;;;;9.98;63.81;103534.22;1958155;28;3508564;-75
2023/02/12 05:30:41;;;;;;;;;11.67;9.00;;;;;9.97;64.00;103532.47;1999203;28;2770169;-75
2023/02/12 05:31:52;;;;;;;;;11.67;9.00;;;;;9.98;63.86;103539.50;1999356;28;3490876;-75
2023/02/12 05:33:03;;;;;;;;;9.33;8.00;;;;;9.97;64.21;103536.84;2009525;28;2756594;-75
2023/02/12 05:34:13;;;;;;;;;10.67;10.00;;;;;9.97;63.88;103534.22;1967708;28;3510708;-75
2023/02/12 05:35:24;;;;;;;;;8.67;7.33;;;;;9.97;63.98;103544.72;2019256;28;2726312;-75
2023/02/12 05:36:35;;;;;;;;;10.33;9.67;;;;;9.96;63.90;103532.44;1963358;28;3487053;-75
2023/02/12 05:37:47;;;;;;;;;9.75;8.00;;;;;9.95;64.06;103534.19;2004018;28;2734659;-75
2023/02/12 05:39:00;;;;;;;;;8.83;8.00;;;;;9.95;64.06;103528.06;2013400;28;2741961;-75
2023/02/12 05:40:14;;;;;;;;;11.33;8.17;;;;;9.95;64.09;103534.19;2002409;28;2754472;-75
2023/02/12 05:41:27;;;;;;;;;8.50;7.00;;;;;9.96;64.17;103529.81;1998443;28;2730473;-75
2023/02/12 05:42:40;;;;;;;;;9.00;9.00;;;;;9.96;64.03;103529.81;2021569;28;2733627;-75
2023/02/12 05:43:52;;;;;;;;;10.67;9.00;;;;;9.98;63.75;103533.34;1984830;28;3479470;-75
2023/02/12 05:45:02;;;;;;;;;13.00;10.67;;;;;9.98;63.92;103533.34;1986815;28;3510652;-75
2023/02/12 05:46:13;;;;;;;;;10.33;8.00;;;;;9.95;63.78;103528.94;1992876;28;2758597;-75
2023/02/12 05:47:24;;;;;;;;;10.00;8.33;;;;;9.95;63.83;103530.69;1999782;28;2748197;-75
2023/02/12 05:48:36;;;;;;;;;10.67;8.67;;;;;9.93;63.71;103524.50;1997085;28;2750374;-75
2023/02/12 05:49:47;;;;;;;;;10.33;8.33;;;;;9.93;63.90;103530.66;1985736;28;3482532;-75
2023/02/12 05:51:13;;;;;;;;;8.75;8.75;;;;;9.93;63.81;103529.75;2019238;28;2735740;-75
2023/02/12 05:52:26;;;;;;;;;7.83;6.83;;;;;9.91;63.57;103529.75;2020381;28;2745057;-75
2023/02/12 05:53:40;;;;;;;;;10.50;9.00;;;;;9.89;63.58;103529.75;2019351;28;2759651;-75